Friday, November 24, 2017, 12:41 AM EST
Back to Local

KPBG, Plattsburgh International Airport

Location: Plattsburgh, NY, United States Lat: 44.65
Local Time: 12:41 AM EST ( 5:41 GMT) Lon: -73.467
Time Zone: US/Eastern Elev: 239 ft

Show me the last for .
Show Decoded

2017-11-23 23:53 METAR KPBG 240453Z AUTO 25005KT 10SM OVC031 02/M04 A2990 RMK AO2 SLP127
                 T00221039 400221072 =
2017-11-23 22:53 METAR KPBG 240353Z AUTO 17003KT 10SM BKN030 OVC100 01/M05 A2989 RMK AO2 SLP124
                 T00061050 =
2017-11-23 21:53 METAR KPBG 240253Z AUTO 19005KT 10SM OVC034 01/M05 A2990 RMK AO2 SLP128
                 T00061050 58013 =
2017-11-23 20:53 METAR KPBG 240153Z AUTO 16004KT 10SM FEW038 SCT060 OVC100 M01/M07 A2992 RMK AO2
                 SLP134 T10061067 =
2017-11-23 19:53 METAR KPBG 240053Z AUTO 18007KT 10SM FEW035 OVC100 M01/M07 A2992 RMK AO2 SLP137
                 T10061067 =
2017-11-23 18:53 METAR KPBG 232353Z AUTO 18006KT 10SM BKN033 OVC110 M01/M07 A2994 RMK AO2 SLP141
                 T10061072 10000 21011 58008 =
2017-11-23 17:53 METAR KPBG 232253Z AUTO 18006KT 10SM OVC033 M01/M07 A2995 RMK AO2 SLP145
                 T10061072 =
2017-11-23 16:53 METAR KPBG 232153Z AUTO 00000KT 10SM OVC033 M01/M08 A2995 RMK AO2 SLP146
                 T10061078 =
2017-11-23 15:53 METAR KPBG 232053Z AUTO 17006KT 10SM OVC035 M01/M08 A2996 RMK AO2 SLP149
                 T10061078 56018 =
2017-11-23 14:53 METAR KPBG 231953Z AUTO 17005KT 10SM SCT046 OVC110 00/M08 A2998 RMK AO2 SLP155
                 T00001078 =
2017-11-23 13:53 METAR KPBG 231853Z AUTO 18006KT 10SM OVC110 M01/M08 A3000 RMK AO2 SLP161
                 T10061083 =
2017-11-23 12:53 METAR KPBG 231753Z AUTO 14008KT 10SM CLR M01/M08 A3001 RMK AO2 SLP167 T10111083
                 11006 21072 56033 =
2017-11-23 11:53 METAR KPBG 231653Z AUTO 19003KT 10SM CLR M02/M11 A3004 RMK AO2 SLP177 T10171106
                 =
2017-11-23 10:53 METAR KPBG 231553Z AUTO VRB05KT 10SM CLR M02/M11 A3007 RMK AO2 SLP187 T10171111
                 =
2017-11-23 09:53 METAR KPBG 231453Z AUTO 00000KT 10SM CLR M03/M11 A3011 RMK AO2 SLP200 T10281111
                 58007 =
2017-11-23 08:53 METAR KPBG 231353Z AUTO 31004KT 10SM CLR M05/M11 A3012 RMK AO2 SLP203 T10501111
                 =
2017-11-23 07:53 METAR KPBG 231253Z AUTO 30003KT 10SM CLR M06/M12 A3013 RMK AO2 SLP208 T10561117
                 =
2017-11-23 06:53 METAR KPBG 231153Z AUTO 00000KT 10SM CLR M07/M12 A3013 RMK AO2 SLP207 70008
                 T10671122 11044 21072 51004 =
2017-11-23 05:53 METAR KPBG 231053Z AUTO 00000KT 10SM CLR M07/M12 A3013 RMK AO2 SLP206 T10671117
                 =
2017-11-23 04:53 METAR KPBG 230953Z AUTO 26003KT 10SM CLR M07/M12 A3012 RMK AO2 SLP205 T10671117
                 =
2017-11-23 03:53 METAR KPBG 230853Z AUTO 00000KT 10SM CLR M06/M12 A3012 RMK AO2 SLP203 T10611122
                 51007 =
2017-11-23 02:53 METAR KPBG 230753Z AUTO 33006KT 10SM CLR M06/M12 A3012 RMK AO2 SLP202 T10561122
                 =
2017-11-23 01:53 METAR KPBG 230653Z AUTO 33014KT 10SM OVC033 M06/M12 A3011 RMK AO2 SLP201
                 T10561122 =
2017-11-23 00:53 METAR KPBG 230553Z AUTO 32013KT 10SM OVC033 M04/M12 A3010 RMK AO2 SLP195
                 T10391117 10006 21039 50003 =

Support USWX by starting your Amazon purchase here.